sensor_id;sensor_type;location;lat;lon;timestamp;P1;durP1;ratioP1;P2;durP2;ratioP2
56997;SDS011;42890;44.244;22.530;2022-07-17T00:00:46;5.18;;;3.58;;
56997;SDS011;42890;44.244;22.530;2022-07-17T00:03:13;6.25;;;3.05;;
56997;SDS011;42890;44.244;22.530;2022-07-17T00:05:40;3.45;;;2.92;;
56997;SDS011;42890;44.244;22.530;2022-07-17T00:08:06;4.68;;;2.80;;
56997;SDS011;42890;44.244;22.530;2022-07-17T00:10:33;4.22;;;3.10;;
56997;SDS011;42890;44.244;22.530;2022-07-17T00:12:59;5.78;;;3.22;;
56997;SDS011;42890;44.244;22.530;2022-07-17T00:15:26;4.97;;;3.20;;
56997;SDS011;42890;44.244;22.530;2022-07-17T00:17:52;5.65;;;3.25;;
56997;SDS011;42890;44.244;22.530;2022-07-17T00:20:18;6.70;;;3.22;;
56997;SDS011;42890;44.244;22.530;2022-07-17T00:22:44;4.38;;;3.30;;
56997;SDS011;42890;44.244;22.530;2022-07-17T00:25:12;4.78;;;3.17;;
56997;SDS011;42890;44.244;22.530;2022-07-17T00:27:38;4.18;;;2.92;;
56997;SDS011;42890;44.244;22.530;2022-07-17T00:30:05;3.13;;;2.65;;
56997;SDS011;42890;44.244;22.530;2022-07-17T00:32:31;9.18;;;3.20;;
56997;SDS011;42890;44.244;22.530;2022-07-17T00:34:57;4.53;;;2.80;;
56997;SDS011;42890;44.244;22.530;2022-07-17T00:37:23;3.97;;;3.08;;
56997;SDS011;42890;44.244;22.530;2022-07-17T00:39:50;7.18;;;2.90;;
56997;SDS011;42890;44.244;22.530;2022-07-17T00:42:17;4.90;;;3.10;;
56997;SDS011;42890;44.244;22.530;2022-07-17T00:44:43;9.82;;;3.10;;
56997;SDS011;42890;44.244;22.530;2022-07-17T00:47:13;3.80;;;3.03;;
56997;SDS011;42890;44.244;22.530;2022-07-17T00:49:40;4.63;;;3.38;;
56997;SDS011;42890;44.244;22.530;2022-07-17T00:52:06;5.20;;;3.33;;
56997;SDS011;42890;44.244;22.530;2022-07-17T00:54:34;5.15;;;3.00;;
56997;SDS011;42890;44.244;22.530;2022-07-17T00:57:01;3.75;;;3.25;;
56997;SDS011;42890;44.244;22.530;2022-07-17T00:59:28;5.43;;;3.03;;
56997;SDS011;42890;44.244;22.530;2022-07-17T01:01:54;6.25;;;3.00;;
56997;SDS011;42890;44.244;22.530;2022-07-17T01:04:20;10.93;;;3.30;;
56997;SDS011;42890;44.244;22.530;2022-07-17T01:06:46;5.88;;;3.17;;
56997;SDS011;42890;44.244;22.530;2022-07-17T01:09:12;4.93;;;3.17;;
56997;SDS011;42890;44.244;22.530;2022-07-17T01:11:39;6.13;;;2.95;;
56997;SDS011;42890;44.244;22.530;2022-07-17T01:14:05;12.57;;;3.85;;
56997;SDS011;42890;44.244;22.530;2022-07-17T01:16:32;5.25;;;2.78;;
56997;SDS011;42890;44.244;22.530;2022-07-17T01:18:58;3.97;;;3.20;;
56997;SDS011;42890;44.244;22.530;2022-07-17T01:21:25;5.15;;;3.10;;
56997;SDS011;42890;44.244;22.530;2022-07-17T01:23:51;5.32;;;3.28;;
56997;SDS011;42890;44.244;22.530;2022-07-17T01:26:17;5.40;;;3.10;;
56997;SDS011;42890;44.244;22.530;2022-07-17T01:28:43;4.32;;;3.30;;
56997;SDS011;42890;44.244;22.530;2022-07-17T01:31:09;10.07;;;4.30;;
56997;SDS011;42890;44.244;22.530;2022-07-17T01:33:35;6.18;;;3.40;;
56997;SDS011;42890;44.244;22.530;2022-07-17T01:36:02;4.18;;;3.25;;
56997;SDS011;42890;44.244;22.530;2022-07-17T01:38:28;9.20;;;3.40;;
56997;SDS011;42890;44.244;22.530;2022-07-17T01:40:54;4.32;;;3.10;;
56997;SDS011;42890;44.244;22.530;2022-07-17T01:43:20;5.72;;;3.63;;
56997;SDS011;42890;44.244;22.530;2022-07-17T01:45:47;4.05;;;3.58;;
56997;SDS011;42890;44.244;22.530;2022-07-17T01:48:22;4.32;;;3.42;;
56997;SDS011;42890;44.244;22.530;2022-07-17T01:50:48;4.43;;;3.47;;
56997;SDS011;42890;44.244;22.530;2022-07-17T01:53:15;4.53;;;3.58;;
56997;SDS011;42890;44.244;22.530;2022-07-17T01:55:41;5.75;;;3.47;;
56997;SDS011;42890;44.244;22.530;2022-07-17T01:58:07;7.50;;;3.35;;
56997;SDS011;42890;44.244;22.530;2022-07-17T02:00:33;5.80;;;3.72;;
56997;SDS011;42890;44.244;22.530;2022-07-17T02:02:59;9.68;;;3.97;;
56997;SDS011;42890;44.244;22.530;2022-07-17T02:05:25;8.63;;;3.35;;
56997;SDS011;42890;44.244;22.530;2022-07-17T02:07:51;5.43;;;3.70;;
56997;SDS011;42890;44.244;22.530;2022-07-17T02:10:17;3.75;;;2.90;;
56997;SDS011;42890;44.244;22.530;2022-07-17T02:12:44;6.15;;;3.53;;
56997;SDS011;42890;44.244;22.530;2022-07-17T02:15:10;5.65;;;3.92;;
56997;SDS011;42890;44.244;22.530;2022-07-17T02:17:36;4.82;;;3.60;;
56997;SDS011;42890;44.244;22.530;2022-07-17T02:20:02;7.53;;;3.67;;
56997;SDS011;42890;44.244;22.530;2022-07-17T02:22:30;8.25;;;3.60;;
56997;SDS011;42890;44.244;22.530;2022-07-17T02:24:56;5.28;;;3.50;;
56997;SDS011;42890;44.244;22.530;2022-07-17T02:27:22;3.80;;;3.35;;
56997;SDS011;42890;44.244;22.530;2022-07-17T02:29:48;6.07;;;3.55;;
56997;SDS011;42890;44.244;22.530;2022-07-17T02:32:14;4.68;;;3.47;;
56997;SDS011;42890;44.244;22.530;2022-07-17T02:34:41;5.30;;;3.75;;
56997;SDS011;42890;44.244;22.530;2022-07-17T02:37:07;6.47;;;3.70;;
56997;SDS011;42890;44.244;22.530;2022-07-17T02:39:33;4.10;;;3.70;;
56997;SDS011;42890;44.244;22.530;2022-07-17T02:41:59;5.60;;;3.45;;
56997;SDS011;42890;44.244;22.530;2022-07-17T02:44:25;4.50;;;3.45;;
56997;SDS011;42890;44.244;22.530;2022-07-17T02:46:51;4.50;;;3.60;;
56997;SDS011;42890;44.244;22.530;2022-07-17T02:49:17;4.50;;;3.50;;
56997;SDS011;42890;44.244;22.530;2022-07-17T02:51:44;3.65;;;3.30;;
56997;SDS011;42890;44.244;22.530;2022-07-17T02:54:10;7.97;;;3.53;;
56997;SDS011;42890;44.244;22.530;2022-07-17T02:56:36;4.53;;;3.50;;
56997;SDS011;42890;44.244;22.530;2022-07-17T02:59:02;6.05;;;3.30;;
56997;SDS011;42890;44.244;22.530;2022-07-17T03:01:28;4.25;;;3.47;;
56997;SDS011;42890;44.244;22.530;2022-07-17T03:03:54;4.28;;;3.60;;
56997;SDS011;42890;44.244;22.530;2022-07-17T03:06:20;8.65;;;3.50;;
56997;SDS011;42890;44.244;22.530;2022-07-17T03:08:46;4.00;;;3.38;;
56997;SDS011;42890;44.244;22.530;2022-07-17T03:11:12;5.05;;;3.53;;
56997;SDS011;42890;44.244;22.530;2022-07-17T03:13:39;3.47;;;3.08;;
56997;SDS011;42890;44.244;22.530;2022-07-17T03:16:05;4.38;;;3.83;;
56997;SDS011;42890;44.244;22.530;2022-07-17T03:18:31;8.90;;;3.35;;
56997;SDS011;42890;44.244;22.530;2022-07-17T03:20:57;4.20;;;3.58;;
56997;SDS011;42890;44.244;22.530;2022-07-17T03:23:23;9.10;;;3.40;;
56997;SDS011;42890;44.244;22.530;2022-07-17T03:25:49;8.00;;;3.38;;
56997;SDS011;42890;44.244;22.530;2022-07-17T03:28:16;4.55;;;3.40;;
56997;SDS011;42890;44.244;22.530;2022-07-17T03:30:42;3.95;;;3.60;;
56997;SDS011;42890;44.244;22.530;2022-07-17T03:33:08;4.75;;;3.20;;
56997;SDS011;42890;44.244;22.530;2022-07-17T03:35:34;28.70;;;14.73;;
56997;SDS011;42890;44.244;22.530;2022-07-17T03:38:00;8.40;;;6.43;;
56997;SDS011;42890;44.244;22.530;2022-07-17T03:40:26;10.48;;;4.53;;
56997;SDS011;42890;44.244;22.530;2022-07-17T03:42:52;21.08;;;16.90;;
56997;SDS011;42890;44.244;22.530;2022-07-17T03:45:19;22.75;;;20.27;;
56997;SDS011;42890;44.244;22.530;2022-07-17T03:47:45;10.55;;;9.45;;
56997;SDS011;42890;44.244;22.530;2022-07-17T03:50:11;7.18;;;6.18;;
56997;SDS011;42890;44.244;22.530;2022-07-17T03:52:37;10.95;;;9.25;;
56997;SDS011;42890;44.244;22.530;2022-07-17T03:55:03;10.20;;;6.25;;
56997;SDS011;42890;44.244;22.530;2022-07-17T03:57:29;4.53;;;4.13;;
56997;SDS011;42890;44.244;22.530;2022-07-17T03:59:56;9.13;;;3.67;;
56997;SDS011;42890;44.244;22.530;2022-07-17T04:02:22;4.55;;;3.67;;
56997;SDS011;42890;44.244;22.530;2022-07-17T04:04:48;5.75;;;3.83;;
56997;SDS011;42890;44.244;22.530;2022-07-17T04:07:14;3.47;;;3.15;;
56997;SDS011;42890;44.244;22.530;2022-07-17T04:09:53;7.57;;;3.63;;
56997;SDS011;42890;44.244;22.530;2022-07-17T04:12:19;7.00;;;3.53;;
56997;SDS011;42890;44.244;22.530;2022-07-17T04:14:45;6.38;;;3.97;;
56997;SDS011;42890;44.244;22.530;2022-07-17T04:17:12;9.45;;;4.18;;
56997;SDS011;42890;44.244;22.530;2022-07-17T04:19:38;4.50;;;3.60;;
56997;SDS011;42890;44.244;22.530;2022-07-17T04:22:04;5.80;;;4.15;;
56997;SDS011;42890;44.244;22.530;2022-07-17T04:24:30;4.10;;;3.13;;
56997;SDS011;42890;44.244;22.530;2022-07-17T04:26:56;12.60;;;4.32;;
56997;SDS011;42890;44.244;22.530;2022-07-17T04:29:22;8.60;;;3.25;;
56997;SDS011;42890;44.244;22.530;2022-07-17T04:31:48;5.80;;;3.50;;
56997;SDS011;42890;44.244;22.530;2022-07-17T04:34:16;4.18;;;3.40;;
56997;SDS011;42890;44.244;22.530;2022-07-17T04:36:42;3.97;;;3.30;;
56997;SDS011;42890;44.244;22.530;2022-07-17T04:39:08;3.58;;;3.10;;
56997;SDS011;42890;44.244;22.530;2022-07-17T04:41:34;3.72;;;3.30;;
56997;SDS011;42890;44.244;22.530;2022-07-17T04:44:00;5.13;;;2.92;;
56997;SDS011;42890;44.244;22.530;2022-07-17T04:46:26;8.52;;;3.40;;
56997;SDS011;42890;44.244;22.530;2022-07-17T04:48:53;5.97;;;3.50;;
56997;SDS011;42890;44.244;22.530;2022-07-17T04:51:19;4.20;;;3.28;;
56997;SDS011;42890;44.244;22.530;2022-07-17T04:53:45;5.40;;;3.03;;
56997;SDS011;42890;44.244;22.530;2022-07-17T04:56:11;6.60;;;3.20;;
56997;SDS011;42890;44.244;22.530;2022-07-17T04:58:37;18.45;;;3.58;;
56997;SDS011;42890;44.244;22.530;2022-07-17T05:01:03;5.53;;;2.90;;
56997;SDS011;42890;44.244;22.530;2022-07-17T05:03:29;6.10;;;3.55;;
56997;SDS011;42890;44.244;22.530;2022-07-17T05:05:55;9.40;;;3.47;;
56997;SDS011;42890;44.244;22.530;2022-07-17T05:08:22;3.38;;;2.90;;
56997;SDS011;42890;44.244;22.530;2022-07-17T05:10:48;6.63;;;3.28;;
56997;SDS011;42890;44.244;22.530;2022-07-17T05:13:14;7.25;;;3.28;;
56997;SDS011;42890;44.244;22.530;2022-07-17T05:15:40;4.97;;;3.50;;
56997;SDS011;42890;44.244;22.530;2022-07-17T05:18:06;8.27;;;4.05;;
56997;SDS011;42890;44.244;22.530;2022-07-17T05:20:33;7.90;;;3.50;;
56997;SDS011;42890;44.244;22.530;2022-07-17T05:22:59;6.85;;;3.25;;
56997;SDS011;42890;44.244;22.530;2022-07-17T05:25:25;3.83;;;3.45;;
56997;SDS011;42890;44.244;22.530;2022-07-17T05:27:52;5.70;;;3.30;;
56997;SDS011;42890;44.244;22.530;2022-07-17T05:30:18;6.53;;;3.35;;
56997;SDS011;42890;44.244;22.530;2022-07-17T05:32:44;5.63;;;3.20;;
56997;SDS011;42890;44.244;22.530;2022-07-17T05:35:10;5.07;;;3.20;;
56997;SDS011;42890;44.244;22.530;2022-07-17T05:37:36;5.20;;;3.67;;
56997;SDS011;42890;44.244;22.530;2022-07-17T05:40:02;3.95;;;3.28;;
56997;SDS011;42890;44.244;22.530;2022-07-17T05:42:29;3.85;;;2.90;;
56997;SDS011;42890;44.244;22.530;2022-07-17T05:44:55;8.48;;;3.08;;
56997;SDS011;42890;44.244;22.530;2022-07-17T05:47:21;6.57;;;3.22;;
56997;SDS011;42890;44.244;22.530;2022-07-17T05:49:47;3.92;;;2.60;;
56997;SDS011;42890;44.244;22.530;2022-07-17T05:52:13;5.90;;;3.28;;
56997;SDS011;42890;44.244;22.530;2022-07-17T05:54:39;5.80;;;3.13;;
56997;SDS011;42890;44.244;22.530;2022-07-17T05:57:05;5.50;;;3.30;;
56997;SDS011;42890;44.244;22.530;2022-07-17T05:59:32;5.32;;;3.10;;
56997;SDS011;42890;44.244;22.530;2022-07-17T06:01:58;5.78;;;3.35;;
56997;SDS011;42890;44.244;22.530;2022-07-17T06:04:24;4.20;;;3.22;;
56997;SDS011;42890;44.244;22.530;2022-07-17T06:06:50;5.80;;;2.95;;
56997;SDS011;42890;44.244;22.530;2022-07-17T06:09:16;6.85;;;2.83;;
56997;SDS011;42890;44.244;22.530;2022-07-17T06:11:43;4.00;;;2.80;;
56997;SDS011;42890;44.244;22.530;2022-07-17T06:14:09;6.38;;;3.00;;
56997;SDS011;42890;44.244;22.530;2022-07-17T06:16:35;4.32;;;3.13;;
56997;SDS011;42890;44.244;22.530;2022-07-17T06:19:01;10.45;;;3.15;;
56997;SDS011;42890;44.244;22.530;2022-07-17T06:21:27;4.57;;;3.03;;
56997;SDS011;42890;44.244;22.530;2022-07-17T06:23:53;2.72;;;2.50;;
56997;SDS011;42890;44.244;22.530;2022-07-17T06:26:19;8.55;;;3.15;;
56997;SDS011;42890;44.244;22.530;2022-07-17T06:28:46;3.70;;;2.60;;
56997;SDS011;42890;44.244;22.530;2022-07-17T06:31:12;4.47;;;3.08;;
56997;SDS011;42890;44.244;22.530;2022-07-17T06:33:38;5.82;;;2.83;;
56997;SDS011;42890;44.244;22.530;2022-07-17T06:36:04;3.55;;;2.60;;
56997;SDS011;42890;44.244;22.530;2022-07-17T06:38:32;3.80;;;2.45;;
56997;SDS011;42890;44.244;22.530;2022-07-17T06:40:58;10.07;;;2.63;;
56997;SDS011;42890;44.244;22.530;2022-07-17T06:43:24;3.30;;;2.22;;
56997;SDS011;42890;44.244;22.530;2022-07-17T06:45:51;4.38;;;2.33;;
56997;SDS011;42890;44.244;22.530;2022-07-17T06:48:19;3.33;;;2.42;;
56997;SDS011;42890;44.244;22.530;2022-07-17T06:50:45;4.90;;;2.72;;
56997;SDS011;42890;44.244;22.530;2022-07-17T06:53:12;6.95;;;2.55;;
56997;SDS011;42890;44.244;22.530;2022-07-17T06:55:38;6.93;;;2.63;;
56997;SDS011;42890;44.244;22.530;2022-07-17T06:58:04;3.25;;;2.35;;
56997;SDS011;42890;44.244;22.530;2022-07-17T07:00:30;2.83;;;2.40;;
56997;SDS011;42890;44.244;22.530;2022-07-17T07:02:56;4.55;;;2.70;;
56997;SDS011;42890;44.244;22.530;2022-07-17T07:05:23;4.72;;;2.70;;
56997;SDS011;42890;44.244;22.530;2022-07-17T07:07:49;2.53;;;2.33;;
56997;SDS011;42890;44.244;22.530;2022-07-17T07:10:15;6.20;;;2.50;;
56997;SDS011;42890;44.244;22.530;2022-07-17T07:12:41;4.40;;;2.90;;
56997;SDS011;42890;44.244;22.530;2022-07-17T07:15:08;4.07;;;2.60;;
56997;SDS011;42890;44.244;22.530;2022-07-17T07:17:34;3.80;;;2.80;;
56997;SDS011;42890;44.244;22.530;2022-07-17T07:20:02;3.90;;;2.47;;
56997;SDS011;42890;44.244;22.530;2022-07-17T07:22:29;3.40;;;2.50;;
56997;SDS011;42890;44.244;22.530;2022-07-17T07:24:55;6.95;;;2.72;;
56997;SDS011;42890;44.244;22.530;2022-07-17T07:27:21;5.07;;;2.70;;
56997;SDS011;42890;44.244;22.530;2022-07-17T07:29:47;4.40;;;2.50;;
56997;SDS011;42890;44.244;22.530;2022-07-17T07:32:14;5.10;;;2.85;;
56997;SDS011;42890;44.244;22.530;2022-07-17T07:34:40;4.32;;;2.58;;
56997;SDS011;42890;44.244;22.530;2022-07-17T07:37:06;4.53;;;2.33;;
56997;SDS011;42890;44.244;22.530;2022-07-17T07:39:32;5.00;;;2.55;;
56997;SDS011;42890;44.244;22.530;2022-07-17T07:41:58;4.88;;;2.50;;
56997;SDS011;42890;44.244;22.530;2022-07-17T07:44:25;3.28;;;2.17;;
56997;SDS011;42890;44.244;22.530;2022-07-17T07:46:51;3.85;;;2.20;;
56997;SDS011;42890;44.244;22.530;2022-07-17T07:49:17;2.20;;;2.00;;
56997;SDS011;42890;44.244;22.530;2022-07-17T07:51:43;5.97;;;2.22;;
56997;SDS011;42890;44.244;22.530;2022-07-17T07:54:09;4.30;;;1.92;;
56997;SDS011;42890;44.244;22.530;2022-07-17T07:56:36;3.80;;;2.00;;
56997;SDS011;42890;44.244;22.530;2022-07-17T07:59:05;2.10;;;1.90;;
56997;SDS011;42890;44.244;22.530;2022-07-17T08:01:31;6.38;;;2.10;;
56997;SDS011;42890;44.244;22.530;2022-07-17T08:03:57;1.90;;;1.77;;
56997;SDS011;42890;44.244;22.530;2022-07-17T08:06:23;3.40;;;1.95;;
56997;SDS011;42890;44.244;22.530;2022-07-17T08:08:49;2.10;;;1.63;;
56997;SDS011;42890;44.244;22.530;2022-07-17T08:11:16;4.70;;;2.25;;
56997;SDS011;42890;44.244;22.530;2022-07-17T08:13:42;4.07;;;2.05;;
56997;SDS011;42890;44.244;22.530;2022-07-17T08:16:08;5.20;;;2.13;;
56997;SDS011;42890;44.244;22.530;2022-07-17T08:18:34;3.28;;;2.40;;
56997;SDS011;42890;44.244;22.530;2022-07-17T08:21:00;2.38;;;1.90;;
56997;SDS011;42890;44.244;22.530;2022-07-17T08:23:26;4.10;;;2.10;;
56997;SDS011;42890;44.244;22.530;2022-07-17T08:25:52;3.75;;;1.92;;
56997;SDS011;42890;44.244;22.530;2022-07-17T08:28:19;5.88;;;2.13;;
56997;SDS011;42890;44.244;22.530;2022-07-17T08:30:45;2.38;;;1.88;;
56997;SDS011;42890;44.244;22.530;2022-07-17T08:33:11;5.13;;;1.90;;
56997;SDS011;42890;44.244;22.530;2022-07-17T08:35:40;7.03;;;2.30;;
56997;SDS011;42890;44.244;22.530;2022-07-17T08:38:06;7.05;;;2.20;;
56997;SDS011;42890;44.244;22.530;2022-07-17T08:40:33;5.32;;;2.10;;
56997;SDS011;42890;44.244;22.530;2022-07-17T08:43:01;1.90;;;1.70;;
56997;SDS011;42890;44.244;22.530;2022-07-17T08:45:27;5.22;;;1.88;;
56997;SDS011;42890;44.244;22.530;2022-07-17T08:47:54;4.80;;;2.10;;
56997;SDS011;42890;44.244;22.530;2022-07-17T08:50:22;2.25;;;1.85;;
56997;SDS011;42890;44.244;22.530;2022-07-17T08:52:48;1.83;;;1.65;;
56997;SDS011;42890;44.244;22.530;2022-07-17T08:55:14;1.98;;;1.80;;
56997;SDS011;42890;44.244;22.530;2022-07-17T08:57:42;1.85;;;1.75;;
56997;SDS011;42890;44.244;22.530;2022-07-17T09:00:09;5.05;;;2.05;;
56997;SDS011;42890;44.244;22.530;2022-07-17T09:02:39;6.15;;;1.90;;
56997;SDS011;42890;44.244;22.530;2022-07-17T09:05:06;3.92;;;1.90;;
56997;SDS011;42890;44.244;22.530;2022-07-17T09:07:33;2.70;;;1.85;;
56997;SDS011;42890;44.244;22.530;2022-07-17T09:09:59;3.55;;;2.15;;
56997;SDS011;42890;44.244;22.530;2022-07-17T09:12:26;2.75;;;2.08;;
56997;SDS011;42890;44.244;22.530;2022-07-17T09:14:53;2.88;;;1.88;;
56997;SDS011;42890;44.244;22.530;2022-07-17T09:17:19;5.93;;;2.17;;
56997;SDS011;42890;44.244;22.530;2022-07-17T09:19:46;11.40;;;2.00;;
56997;SDS011;42890;44.244;22.530;2022-07-17T09:22:13;3.65;;;1.67;;
56997;SDS011;42890;44.244;22.530;2022-07-17T09:24:40;2.35;;;1.98;;
56997;SDS011;42890;44.244;22.530;2022-07-17T09:27:07;1.73;;;1.63;;
56997;SDS011;42890;44.244;22.530;2022-07-17T09:29:35;1.83;;;1.50;;
56997;SDS011;42890;44.244;22.530;2022-07-17T09:32:19;3.72;;;1.88;;
56997;SDS011;42890;44.244;22.530;2022-07-17T09:34:46;2.15;;;1.90;;
56997;SDS011;42890;44.244;22.530;2022-07-17T09:37:12;2.22;;;1.90;;
56997;SDS011;42890;44.244;22.530;2022-07-17T09:39:38;3.35;;;1.73;;
56997;SDS011;42890;44.244;22.530;2022-07-17T09:42:05;3.90;;;1.60;;
56997;SDS011;42890;44.244;22.530;2022-07-17T09:44:31;3.95;;;1.67;;
56997;SDS011;42890;44.244;22.530;2022-07-17T09:46:58;2.63;;;1.77;;
56997;SDS011;42890;44.244;22.530;2022-07-17T09:49:25;1.90;;;1.80;;
56997;SDS011;42890;44.244;22.530;2022-07-17T09:51:52;3.88;;;1.95;;
56997;SDS011;42890;44.244;22.530;2022-07-17T09:54:20;4.97;;;1.98;;
56997;SDS011;42890;44.244;22.530;2022-07-17T09:56:47;2.25;;;1.60;;
56997;SDS011;42890;44.244;22.530;2022-07-17T09:59:15;7.03;;;1.80;;
56997;SDS011;42890;44.244;22.530;2022-07-17T10:01:42;2.85;;;1.70;;
56997;SDS011;42890;44.244;22.530;2022-07-17T10:04:09;3.22;;;1.80;;
56997;SDS011;42890;44.244;22.530;2022-07-17T10:06:35;2.92;;;1.75;;
56997;SDS011;42890;44.244;22.530;2022-07-17T10:09:02;2.15;;;1.65;;
56997;SDS011;42890;44.244;22.530;2022-07-17T10:11:30;2.03;;;1.48;;
56997;SDS011;42890;44.244;22.530;2022-07-17T10:14:01;12.05;;;2.00;;
56997;SDS011;42890;44.244;22.530;2022-07-17T10:16:29;3.27;;;1.70;;
56997;SDS011;42890;44.244;22.530;2022-07-17T10:18:56;13.98;;;1.90;;
56997;SDS011;42890;44.244;22.530;2022-07-17T10:21:23;1.92;;;1.65;;
56997;SDS011;42890;44.244;22.530;2022-07-17T10:26:16;3.50;;;1.70;;
56997;SDS011;42890;44.244;22.530;2022-07-17T10:28:43;2.88;;;1.60;;
56997;SDS011;42890;44.244;22.530;2022-07-17T10:31:14;18.13;;;1.90;;
56997;SDS011;42890;44.244;22.530;2022-07-17T10:34:01;2.90;;;1.60;;
56997;SDS011;42890;44.244;22.530;2022-07-17T10:36:35;2.58;;;1.73;;
56997;SDS011;42890;44.244;22.530;2022-07-17T10:39:18;2.53;;;1.65;;
56997;SDS011;42890;44.244;22.530;2022-07-17T10:41:58;3.58;;;1.70;;
56997;SDS011;42890;44.244;22.530;2022-07-17T10:44:25;3.03;;;1.50;;
56997;SDS011;42890;44.244;22.530;2022-07-17T10:46:52;4.93;;;1.80;;
56997;SDS011;42890;44.244;22.530;2022-07-17T10:49:18;3.90;;;1.88;;
56997;SDS011;42890;44.244;22.530;2022-07-17T10:51:45;3.50;;;1.80;;
56997;SDS011;42890;44.244;22.530;2022-07-17T10:54:13;5.00;;;1.77;;
56997;SDS011;42890;44.244;22.530;2022-07-17T10:56:39;2.75;;;1.70;;
56997;SDS011;42890;44.244;22.530;2022-07-17T10:59:05;5.18;;;1.60;;
56997;SDS011;42890;44.244;22.530;2022-07-17T11:01:31;2.72;;;1.73;;
56997;SDS011;42890;44.244;22.530;2022-07-17T11:03:59;3.38;;;1.73;;
56997;SDS011;42890;44.244;22.530;2022-07-17T11:11:34;3.17;;;1.67;;
56997;SDS011;42890;44.244;22.530;2022-07-17T11:14:10;4.72;;;1.67;;
56997;SDS011;42890;44.244;22.530;2022-07-17T11:16:36;3.88;;;1.65;;
56997;SDS011;42890;44.244;22.530;2022-07-17T11:19:03;4.22;;;1.60;;
56997;SDS011;42890;44.244;22.530;2022-07-17T11:21:29;3.22;;;1.80;;
56997;SDS011;42890;44.244;22.530;2022-07-17T11:23:57;6.93;;;1.70;;
56997;SDS011;42890;44.244;22.530;2022-07-17T11:26:23;2.97;;;1.60;;
56997;SDS011;42890;44.244;22.530;2022-07-17T11:28:50;2.80;;;1.85;;
56997;SDS011;42890;44.244;22.530;2022-07-17T11:31:18;3.08;;;1.50;;
56997;SDS011;42890;44.244;22.530;2022-07-17T11:33:53;4.05;;;1.67;;
56997;SDS011;42890;44.244;22.530;2022-07-17T11:36:23;1.80;;;1.60;;
56997;SDS011;42890;44.244;22.530;2022-07-17T11:38:50;2.83;;;1.65;;
56997;SDS011;42890;44.244;22.530;2022-07-17T11:41:16;4.88;;;1.55;;
56997;SDS011;42890;44.244;22.530;2022-07-17T11:43:44;2.67;;;1.75;;
56997;SDS011;42890;44.244;22.530;2022-07-17T11:46:10;3.35;;;1.73;;
56997;SDS011;42890;44.244;22.530;2022-07-17T11:48:37;2.03;;;1.60;;
56997;SDS011;42890;44.244;22.530;2022-07-17T11:51:05;3.92;;;1.58;;
56997;SDS011;42890;44.244;22.530;2022-07-17T11:53:32;2.75;;;1.70;;
56997;SDS011;42890;44.244;22.530;2022-07-17T11:55:59;4.07;;;1.60;;
56997;SDS011;42890;44.244;22.530;2022-07-17T11:58:26;2.15;;;1.80;;
56997;SDS011;42890;44.244;22.530;2022-07-17T12:01:02;8.63;;;1.58;;
56997;SDS011;42890;44.244;22.530;2022-07-17T12:03:28;3.83;;;1.70;;
56997;SDS011;42890;44.244;22.530;2022-07-17T12:05:54;3.03;;;1.50;;
56997;SDS011;42890;44.244;22.530;2022-07-17T12:08:21;4.60;;;1.60;;
56997;SDS011;42890;44.244;22.530;2022-07-17T12:10:47;2.42;;;1.52;;
56997;SDS011;42890;44.244;22.530;2022-07-17T12:13:13;8.38;;;1.67;;
56997;SDS011;42890;44.244;22.530;2022-07-17T12:15:40;2.40;;;1.50;;
56997;SDS011;42890;44.244;22.530;2022-07-17T12:18:19;2.75;;;1.77;;
56997;SDS011;42890;44.244;22.530;2022-07-17T12:20:46;4.00;;;1.70;;
56997;SDS011;42890;44.244;22.530;2022-07-17T12:28:33;5.78;;;1.88;;
56997;SDS011;42890;44.244;22.530;2022-07-17T12:31:00;13.00;;;1.55;;
56997;SDS011;42890;44.244;22.530;2022-07-17T12:33:26;2.88;;;1.20;;
56997;SDS011;42890;44.244;22.530;2022-07-17T12:35:52;7.47;;;1.50;;
56997;SDS011;42890;44.244;22.530;2022-07-17T12:38:19;2.75;;;1.50;;
56997;SDS011;42890;44.244;22.530;2022-07-17T12:40:45;5.75;;;1.67;;
56997;SDS011;42890;44.244;22.530;2022-07-17T12:43:11;3.33;;;1.25;;
56997;SDS011;42890;44.244;22.530;2022-07-17T12:45:38;4.88;;;1.55;;
56997;SDS011;42890;44.244;22.530;2022-07-17T12:48:04;9.50;;;1.80;;
56997;SDS011;42890;44.244;22.530;2022-07-17T12:50:30;4.45;;;1.55;;
56997;SDS011;42890;44.244;22.530;2022-07-17T12:52:56;2.15;;;1.40;;
56997;SDS011;42890;44.244;22.530;2022-07-17T12:55:22;5.75;;;1.75;;
56997;SDS011;42890;44.244;22.530;2022-07-17T12:57:49;3.00;;;1.50;;
56997;SDS011;42890;44.244;22.530;2022-07-17T13:00:15;4.78;;;1.75;;
56997;SDS011;42890;44.244;22.530;2022-07-17T13:02:42;2.03;;;1.20;;
56997;SDS011;42890;44.244;22.530;2022-07-17T13:05:08;3.22;;;1.42;;
56997;SDS011;42890;44.244;22.530;2022-07-17T13:07:34;2.45;;;1.27;;
56997;SDS011;42890;44.244;22.530;2022-07-17T13:10:00;1.48;;;1.38;;
56997;SDS011;42890;44.244;22.530;2022-07-17T13:12:26;5.57;;;1.15;;
56997;SDS011;42890;44.244;22.530;2022-07-17T13:14:52;2.63;;;1.33;;
56997;SDS011;42890;44.244;22.530;2022-07-17T13:17:19;2.72;;;1.30;;
56997;SDS011;42890;44.244;22.530;2022-07-17T13:19:45;2.03;;;1.40;;
56997;SDS011;42890;44.244;22.530;2022-07-17T13:22:11;4.82;;;1.48;;
56997;SDS011;42890;44.244;22.530;2022-07-17T13:24:37;1.73;;;1.38;;
56997;SDS011;42890;44.244;22.530;2022-07-17T13:27:03;5.13;;;1.35;;
56997;SDS011;42890;44.244;22.530;2022-07-17T13:29:29;2.15;;;0.90;;
56997;SDS011;42890;44.244;22.530;2022-07-17T13:31:56;1.63;;;1.17;;
56997;SDS011;42890;44.244;22.530;2022-07-17T13:34:22;1.73;;;1.27;;
56997;SDS011;42890;44.244;22.530;2022-07-17T13:36:48;2.72;;;1.17;;
56997;SDS011;42890;44.244;22.530;2022-07-17T13:39:15;3.10;;;1.38;;
56997;SDS011;42890;44.244;22.530;2022-07-17T13:41:41;4.25;;;0.95;;
56997;SDS011;42890;44.244;22.530;2022-07-17T13:44:07;2.15;;;1.25;;
56997;SDS011;42890;44.244;22.530;2022-07-17T13:46:34;3.65;;;1.02;;
56997;SDS011;42890;44.244;22.530;2022-07-17T13:49:00;4.03;;;1.30;;
56997;SDS011;42890;44.244;22.530;2022-07-17T13:51:26;3.72;;;1.20;;
56997;SDS011;42890;44.244;22.530;2022-07-17T13:53:55;1.23;;;0.88;;
56997;SDS011;42890;44.244;22.530;2022-07-17T13:56:21;3.00;;;1.70;;
56997;SDS011;42890;44.244;22.530;2022-07-17T13:58:48;1.95;;;1.10;;
56997;SDS011;42890;44.244;22.530;2022-07-17T14:01:14;2.05;;;0.95;;
56997;SDS011;42890;44.244;22.530;2022-07-17T14:03:40;2.97;;;0.88;;
56997;SDS011;42890;44.244;22.530;2022-07-17T14:06:06;3.83;;;0.80;;
56997;SDS011;42890;44.244;22.530;2022-07-17T14:08:33;2.42;;;0.98;;
56997;SDS011;42890;44.244;22.530;2022-07-17T14:10:59;2.85;;;1.08;;
56997;SDS011;42890;44.244;22.530;2022-07-17T14:13:25;1.75;;;1.15;;
56997;SDS011;42890;44.244;22.530;2022-07-17T14:15:51;0.85;;;0.80;;
56997;SDS011;42890;44.244;22.530;2022-07-17T14:18:17;1.90;;;0.98;;
56997;SDS011;42890;44.244;22.530;2022-07-17T14:20:44;2.28;;;1.05;;
56997;SDS011;42890;44.244;22.530;2022-07-17T14:23:10;2.15;;;0.98;;
56997;SDS011;42890;44.244;22.530;2022-07-17T14:25:36;4.68;;;1.05;;
56997;SDS011;42890;44.244;22.530;2022-07-17T14:28:03;1.83;;;0.82;;
56997;SDS011;42890;44.244;22.530;2022-07-17T14:30:29;3.17;;;1.20;;
56997;SDS011;42890;44.244;22.530;2022-07-17T14:32:57;3.63;;;1.13;;
56997;SDS011;42890;44.244;22.530;2022-07-17T14:35:23;2.88;;;0.85;;
56997;SDS011;42890;44.244;22.530;2022-07-17T14:37:49;2.70;;;1.23;;
56997;SDS011;42890;44.244;22.530;2022-07-17T14:40:16;2.78;;;0.93;;
56997;SDS011;42890;44.244;22.530;2022-07-17T14:42:42;4.57;;;1.17;;